createdAt,value
2022-10-04T00:01:45.013Z,16.21
2022-10-04T00:04:42.014Z,16.18
2022-10-04T00:07:11.280Z,16.21
2022-10-04T00:09:55.868Z,16.17
2022-10-04T00:12:27.238Z,16.20
2022-10-04T00:14:57.498Z,16.14
2022-10-04T00:17:27.276Z,16.16
2022-10-04T00:19:55.297Z,16.24
2022-10-04T00:22:28.822Z,16.23
2022-10-04T00:25:07.480Z,16.21
2022-10-04T00:27:38.845Z,16.22
2022-10-04T00:30:05.250Z,16.18
2022-10-04T00:32:31.596Z,16.13
2022-10-04T00:35:00.211Z,16.09
2022-10-04T00:37:27.740Z,16.05
2022-10-04T00:40:26.288Z,16.01
2022-10-04T00:42:58.706Z,15.98
2022-10-04T00:45:41.312Z,15.94
2022-10-04T00:48:33.208Z,15.92
2022-10-04T00:51:07.136Z,15.86
2022-10-04T00:53:53.016Z,15.84
2022-10-04T00:56:37.214Z,15.78
2022-10-04T00:59:09.679Z,15.76
2022-10-04T01:01:37.873Z,15.73
2022-10-04T01:04:12.753Z,15.72
2022-10-04T01:06:41.724Z,15.70
2022-10-04T01:09:10.413Z,15.71
2022-10-04T01:11:50.657Z,15.66
2022-10-04T01:14:33.501Z,15.71
2022-10-04T01:16:59.990Z,15.81
2022-10-04T01:19:31.195Z,15.82
2022-10-04T01:22:00.389Z,15.83
2022-10-04T01:24:34.032Z,15.81
2022-10-04T01:27:00.880Z,15.81
2022-10-04T01:29:29.872Z,15.80
2022-10-04T01:32:01.005Z,15.83
2022-10-04T01:34:28.405Z,15.77
2022-10-04T01:36:57.845Z,15.72
2022-10-04T01:39:26.205Z,15.72
2022-10-04T01:42:05.110Z,15.67
2022-10-04T01:44:37.422Z,15.67
2022-10-04T01:47:09.762Z,15.70
2022-10-04T01:49:39.232Z,15.71
2022-10-04T01:52:10.696Z,15.81
2022-10-04T01:54:43.404Z,15.87
2022-10-04T01:57:27.578Z,15.88
2022-10-04T02:00:02.002Z,15.91
2022-10-04T02:02:35.466Z,15.86
2022-10-04T02:05:06.337Z,15.86
2022-10-04T02:07:34.833Z,15.77
2022-10-04T02:10:05.479Z,15.71
2022-10-04T02:12:34.040Z,15.74
2022-10-04T02:15:04.181Z,15.77
2022-10-04T02:17:33.772Z,15.75
2022-10-04T02:20:02.846Z,15.74
2022-10-04T02:22:30.437Z,15.79
2022-10-04T02:24:58.027Z,15.74
2022-10-04T02:27:31.603Z,15.76
2022-10-04T02:30:03.385Z,15.76
2022-10-04T02:32:51.275Z,15.76
2022-10-04T02:35:19.783Z,15.81
2022-10-04T02:37:50.718Z,15.75
2022-10-04T02:40:21.649Z,15.70
2022-10-04T02:43:11.221Z,15.66
2022-10-04T02:46:22.105Z,15.64
2022-10-04T02:48:58.831Z,15.60
2022-10-04T02:51:38.629Z,15.55
2022-10-04T02:54:25.049Z,15.54
2022-10-04T02:56:55.316Z,15.57
2022-10-04T02:59:22.516Z,15.61
2022-10-04T03:01:53.414Z,15.63
2022-10-04T03:04:26.822Z,15.62
2022-10-04T03:06:54.977Z,15.72
2022-10-04T03:09:27.423Z,15.81
2022-10-04T03:11:56.433Z,15.86
2022-10-04T03:14:26.637Z,15.90
2022-10-04T03:16:57.445Z,15.89
2022-10-04T03:19:26.862Z,15.84
2022-10-04T03:21:57.937Z,15.80
2022-10-04T03:24:30.166Z,15.81
2022-10-04T03:26:59.423Z,15.78
2022-10-04T03:29:30.230Z,15.77
2022-10-04T03:31:58.121Z,15.81
2022-10-04T03:34:46.689Z,15.83
2022-10-04T03:37:16.488Z,15.86
2022-10-04T03:39:49.192Z,15.88
2022-10-04T03:42:15.795Z,15.82
2022-10-04T03:44:47.326Z,15.87
2022-10-04T03:47:20.692Z,15.92
2022-10-04T03:49:51.030Z,15.94
2022-10-04T03:52:25.381Z,15.90
2022-10-04T03:54:55.128Z,15.86
2022-10-04T03:57:22.634Z,15.85
2022-10-04T03:59:50.269Z,15.84
2022-10-04T04:02:30.258Z,15.79
2022-10-04T04:05:21.316Z,15.78
2022-10-04T04:08:00.758Z,15.79
2022-10-04T04:10:33.979Z,15.82
2022-10-04T04:13:15.349Z,15.81
2022-10-04T04:15:43.345Z,15.84
2022-10-04T04:18:17.485Z,15.86
2022-10-04T04:20:44.593Z,15.87
2022-10-04T04:23:11.790Z,15.87
2022-10-04T04:25:41.180Z,15.86
2022-10-04T04:28:30.002Z,15.82
2022-10-04T04:31:09.250Z,15.81
2022-10-04T04:33:51.414Z,15.78
2022-10-04T04:36:17.900Z,15.70
2022-10-04T04:39:02.860Z,15.66
2022-10-04T04:41:33.763Z,15.69
2022-10-04T04:44:00.349Z,15.71
2022-10-04T04:46:29.044Z,15.64
2022-10-04T04:49:02.550Z,15.60
2022-10-04T04:51:31.585Z,15.62
2022-10-04T04:54:01.718Z,15.62
2022-10-04T04:56:30.544Z,15.59
2022-10-04T04:58:59.676Z,15.52
2022-10-04T05:01:44.668Z,15.49
2022-10-04T05:04:14.143Z,15.48
2022-10-04T05:06:43.672Z,15.42
2022-10-04T05:09:31.632Z,15.41
2022-10-04T05:12:18.074Z,15.38
2022-10-04T05:14:50.628Z,15.46
2022-10-04T05:17:24.293Z,15.53
2022-10-04T05:19:52.537Z,15.53
2022-10-04T05:22:23.132Z,15.57
2022-10-04T05:24:54.257Z,15.60
2022-10-04T05:27:37.421Z,15.62
2022-10-04T05:30:10.239Z,15.64
2022-10-04T05:33:13.308Z,15.73
2022-10-04T05:36:11.798Z,15.72
2022-10-04T05:38:50.619Z,15.71
2022-10-04T05:41:33.346Z,15.75
2022-10-04T05:44:02.361Z,15.78
2022-10-04T05:46:31.157Z,15.78
2022-10-04T05:49:11.395Z,15.84
2022-10-04T05:52:27.734Z,15.81
2022-10-04T05:55:12.243Z,15.78
2022-10-04T05:58:00.477Z,15.76
2022-10-04T06:00:49.178Z,15.76
2022-10-04T06:03:30.676Z,15.68
2022-10-04T06:06:02.355Z,15.68
2022-10-04T06:08:54.300Z,15.52
2022-10-04T06:11:49.733Z,15.42
2022-10-04T06:15:03.733Z,15.51
2022-10-04T06:17:51.265Z,15.82
2022-10-04T06:21:12.067Z,16.20
2022-10-04T06:23:47.761Z,16.34
2022-10-04T06:26:21.635Z,16.37
2022-10-04T06:28:56.632Z,16.45
2022-10-04T06:31:25.917Z,16.55
2022-10-04T06:34:22.309Z,16.58
2022-10-04T06:36:48.665Z,16.28
2022-10-04T06:39:24.081Z,16.28
2022-10-04T06:42:33.849Z,16.30
2022-10-04T06:45:30.797Z,16.22
2022-10-04T06:48:23.224Z,16.05
2022-10-04T06:50:54.793Z,16.02
2022-10-04T06:53:51.362Z,15.98
2022-10-04T06:56:23.789Z,16.07
2022-10-04T06:59:28.602Z,16.08
2022-10-04T07:02:04.060Z,16.12
2022-10-04T07:05:06.475Z,16.15
2022-10-04T07:07:36.629Z,16.26
2022-10-04T07:10:05.554Z,16.26
2022-10-04T07:12:40.978Z,16.31
2022-10-04T07:15:19.555Z,16.36
2022-10-04T07:17:48.913Z,16.41
2022-10-04T07:20:22.764Z,16.44
2022-10-04T07:23:14.387Z,16.45
2022-10-04T07:25:51.976Z,16.45
2022-10-04T07:28:43.999Z,16.48
2022-10-04T07:31:27.265Z,16.48
2022-10-04T07:34:00.024Z,16.49
2022-10-04T07:36:39.819Z,16.48
2022-10-04T07:39:52.638Z,16.48
2022-10-04T07:42:25.752Z,16.48
2022-10-04T07:45:08.665Z,16.51
2022-10-04T07:47:35.236Z,16.49
2022-10-04T07:50:25.029Z,16.49
2022-10-04T07:53:09.188Z,16.56
2022-10-04T07:55:47.604Z,16.65
2022-10-04T07:58:16.706Z,16.68
2022-10-04T08:01:01.825Z,16.75
2022-10-04T08:04:00.067Z,16.80
2022-10-04T08:06:44.147Z,16.90
2022-10-04T08:09:23.317Z,16.93
2022-10-04T08:12:17.040Z,16.98
2022-10-04T08:15:12.272Z,17.18
2022-10-04T08:17:56.067Z,17.28
2022-10-04T08:20:32.621Z,17.24
2022-10-04T08:23:24.834Z,17.24
2022-10-04T08:26:12.691Z,17.34
2022-10-04T08:29:09.523Z,17.38
2022-10-04T08:32:13.201Z,17.46
2022-10-04T08:35:16.453Z,17.58
2022-10-04T08:37:54.819Z,17.64
2022-10-04T08:40:47.341Z,17.72
2022-10-04T08:43:30.604Z,17.90
2022-10-04T08:46:28.317Z,17.91
2022-10-04T08:49:38.302Z,18.01
2022-10-04T08:52:30.981Z,18.13
2022-10-04T08:55:21.024Z,18.19
2022-10-04T08:58:01.440Z,18.19
2022-10-04T09:00:46.866Z,18.25
2022-10-04T09:03:51.102Z,18.28
2022-10-04T09:06:38.191Z,18.33
2022-10-04T09:09:35.738Z,18.50
2022-10-04T09:12:37.504Z,18.50
2022-10-04T09:15:31.196Z,18.41
2022-10-04T09:18:12.976Z,18.38
2022-10-04T09:20:48.327Z,18.34
2022-10-04T09:23:23.800Z,18.24
2022-10-04T09:26:08.386Z,18.23
2022-10-04T09:29:22.417Z,18.13
2022-10-04T09:32:16.565Z,18.26
2022-10-04T09:35:24.213Z,18.29
2022-10-04T09:38:18.158Z,18.28
2022-10-04T09:40:58.466Z,18.20
2022-10-04T09:43:35.948Z,18.07
2022-10-04T09:46:23.185Z,18.02
2022-10-04T09:49:32.682Z,18.17
2022-10-04T09:52:16.177Z,18.20
2022-10-04T09:55:19.843Z,18.31
2022-10-04T09:58:22.917Z,18.51
2022-10-04T10:01:13.956Z,18.65
2022-10-04T10:04:08.766Z,18.44
2022-10-04T10:06:41.360Z,18.41
2022-10-04T10:09:18.370Z,18.42
2022-10-04T10:12:18.417Z,18.41
2022-10-04T10:15:17.630Z,18.39
2022-10-04T10:18:02.581Z,18.40
2022-10-04T10:20:47.920Z,18.35
2022-10-04T10:24:02.554Z,18.27
2022-10-04T10:26:58.000Z,18.24
2022-10-04T10:29:36.562Z,18.22
2022-10-04T10:32:19.125Z,18.27
2022-10-04T10:35:08.707Z,18.37
2022-10-04T10:37:45.699Z,18.43
2022-10-04T10:40:21.295Z,18.50
2022-10-04T10:43:07.992Z,18.51
2022-10-04T10:45:49.734Z,18.55
2022-10-04T10:48:33.542Z,18.59
2022-10-04T10:51:38.175Z,18.69
2022-10-04T10:54:42.584Z,18.74
2022-10-04T10:57:34.053Z,18.82
2022-10-04T11:00:18.173Z,18.87
2022-10-04T11:03:22.686Z,19.07
2022-10-04T11:06:07.233Z,18.96
2022-10-04T11:08:53.060Z,18.91
2022-10-04T11:11:34.765Z,19.05
2022-10-04T11:14:29.062Z,19.20
2022-10-04T11:16:56.710Z,19.34
2022-10-04T11:20:16.678Z,19.43
2022-10-04T11:23:02.043Z,19.54
2022-10-04T11:25:52.765Z,19.70
2022-10-04T11:28:56.723Z,19.59
2022-10-04T11:31:41.295Z,19.64
2022-10-04T11:34:22.855Z,19.78
2022-10-04T11:37:20.638Z,19.88
2022-10-04T11:40:55.399Z,19.82
2022-10-04T11:43:55.552Z,19.94
2022-10-04T11:46:37.097Z,20.09
2022-10-04T11:49:16.758Z,20.12
2022-10-04T11:52:20.799Z,20.02
2022-10-04T11:54:57.197Z,19.94
2022-10-04T11:57:36.677Z,19.90
2022-10-04T12:00:25.891Z,20.10
2022-10-04T12:03:16.063Z,20.12
2022-10-04T12:05:48.887Z,20.06
2022-10-04T12:08:37.359Z,20.12
2022-10-04T12:11:15.965Z,20.15
2022-10-04T12:14:04.031Z,20.23
2022-10-04T12:16:57.057Z,20.22
2022-10-04T12:19:32.446Z,20.17
2022-10-04T12:22:17.319Z,20.27
2022-10-04T12:25:12.906Z,20.40
2022-10-04T12:27:51.241Z,20.43
2022-10-04T12:30:36.752Z,20.39
2022-10-04T12:33:26.090Z,20.32
2022-10-04T12:36:08.343Z,20.45
2022-10-04T12:38:56.423Z,20.60
2022-10-04T12:41:35.948Z,20.63
2022-10-04T12:44:13.150Z,20.48
2022-10-04T12:46:59.952Z,20.34
2022-10-04T12:49:56.343Z,20.33
2022-10-04T12:52:27.064Z,20.41
2022-10-04T12:54:53.401Z,20.56
2022-10-04T12:57:20.159Z,20.56
2022-10-04T13:00:00.001Z,20.45
2022-10-04T13:02:57.353Z,20.37
2022-10-04T13:05:32.788Z,20.43
2022-10-04T13:08:15.654Z,20.36
2022-10-04T13:10:47.839Z,20.44
2022-10-04T13:13:36.060Z,20.58
2022-10-04T13:19:24.006Z,20.67
2022-10-04T13:21:58.860Z,20.68
2022-10-04T13:24:54.060Z,20.71
2022-10-04T13:27:38.398Z,20.77
2022-10-04T13:30:07.119Z,20.81
2022-10-04T13:33:14.153Z,20.81
2022-10-04T13:36:06.824Z,20.86
2022-10-04T13:38:54.343Z,20.88
2022-10-04T13:41:29.813Z,20.92
2022-10-04T13:44:15.260Z,20.89
2022-10-04T13:47:06.130Z,20.89
2022-10-04T13:49:34.657Z,20.92
2022-10-04T13:52:28.559Z,20.93
2022-10-04T13:55:23.296Z,20.97
2022-10-04T13:57:57.902Z,20.94
2022-10-04T14:01:01.795Z,20.95
2022-10-04T14:03:40.575Z,21.04
2022-10-04T14:06:34.619Z,21.06
2022-10-04T14:09:19.379Z,21.02
2022-10-04T14:12:04.114Z,21.01
2022-10-04T14:15:12.174Z,20.97
2022-10-04T14:17:56.798Z,20.93
2022-10-04T14:20:29.312Z,20.94
2022-10-04T14:22:58.726Z,20.95
2022-10-04T14:26:15.830Z,21.01
2022-10-04T14:28:52.991Z,21.07
2022-10-04T14:31:47.048Z,21.08
2022-10-04T14:34:47.528Z,21.02
2022-10-04T14:37:36.808Z,21.05
2022-10-04T14:40:18.479Z,21.01
2022-10-04T14:42:47.969Z,20.98
2022-10-04T14:45:43.528Z,20.97
2022-10-04T14:48:30.198Z,21.00
2022-10-04T14:51:28.729Z,20.98
2022-10-04T14:54:22.296Z,21.06
2022-10-04T14:57:01.706Z,21.10
2022-10-04T15:00:06.796Z,21.07
2022-10-04T15:02:33.162Z,21.04
2022-10-04T15:05:06.166Z,21.08
2022-10-04T15:07:37.421Z,21.07
2022-10-04T15:10:03.954Z,21.07
2022-10-04T15:12:52.001Z,21.06
2022-10-04T15:15:19.178Z,21.10
2022-10-04T15:17:51.285Z,21.16
2022-10-04T15:20:54.137Z,21.09
2022-10-04T15:23:38.660Z,21.01
2022-10-04T15:26:19.936Z,21.05
2022-10-04T15:28:48.914Z,21.08
2022-10-04T15:31:27.275Z,21.12
2022-10-04T15:34:03.129Z,21.13
2022-10-04T15:36:52.700Z,21.09
2022-10-04T15:39:58.720Z,20.97
2022-10-04T15:42:37.027Z,20.84
2022-10-04T15:45:18.684Z,20.79
2022-10-04T15:48:11.698Z,20.77
2022-10-04T15:50:59.595Z,20.74
2022-10-04T15:53:50.289Z,20.73
2022-10-04T15:56:33.119Z,20.71
2022-10-04T15:58:59.471Z,20.68
2022-10-04T16:01:55.087Z,20.66
2022-10-04T16:04:33.197Z,20.60
2022-10-04T16:07:41.086Z,20.55
2022-10-04T16:10:39.423Z,20.51
2022-10-04T16:13:56.971Z,20.45
2022-10-04T16:16:29.054Z,20.40
2022-10-04T16:19:20.087Z,20.36
2022-10-04T16:21:52.393Z,20.32
2022-10-04T16:24:22.021Z,20.31
2022-10-04T16:26:50.989Z,20.30
2022-10-04T16:29:28.012Z,20.25
2022-10-04T16:32:21.298Z,20.21
2022-10-04T16:35:03.298Z,20.15
2022-10-04T16:37:57.605Z,20.12
2022-10-04T16:40:30.152Z,20.08
2022-10-04T16:43:01.856Z,20.05
2022-10-04T16:45:48.651Z,20.00
2022-10-04T16:48:30.145Z,19.96
2022-10-04T16:51:04.932Z,19.94
2022-10-04T16:54:05.840Z,19.89
2022-10-04T16:56:56.391Z,19.81
2022-10-04T17:00:07.482Z,19.74
2022-10-04T17:02:49.121Z,19.69
2022-10-04T17:05:35.846Z,19.61
2022-10-04T17:08:17.810Z,19.56
2022-10-04T17:10:49.908Z,19.52
2022-10-04T17:13:21.028Z,19.48
2022-10-04T17:16:07.536Z,19.42
2022-10-04T17:18:55.404Z,19.38
2022-10-04T17:21:32.758Z,19.30
2022-10-04T17:24:10.169Z,19.27
2022-10-04T17:27:00.813Z,19.20
2022-10-04T17:29:36.949Z,19.12
2022-10-04T17:32:03.272Z,19.08
2022-10-04T17:34:36.177Z,19.07
2022-10-04T17:37:06.076Z,19.06
2022-10-04T17:39:47.083Z,18.99
2022-10-04T17:42:31.864Z,18.95
2022-10-04T17:45:16.977Z,18.92
2022-10-04T17:48:19.036Z,18.89
2022-10-04T17:51:39.345Z,18.85
2022-10-04T17:54:39.330Z,18.77
2022-10-04T17:57:05.673Z,18.73
2022-10-04T17:59:47.890Z,18.70
2022-10-04T18:02:42.052Z,18.63
2022-10-04T18:05:26.822Z,18.52
2022-10-04T18:08:08.018Z,18.45
2022-10-04T18:10:52.873Z,18.46
2022-10-04T18:13:27.875Z,18.44
2022-10-04T18:15:57.268Z,18.43
2022-10-04T18:18:29.166Z,18.41
2022-10-04T18:20:55.481Z,18.39
2022-10-04T18:23:28.276Z,18.37
2022-10-04T18:25:59.511Z,18.34
2022-10-04T18:28:26.007Z,18.30
2022-10-04T18:30:52.448Z,18.27
2022-10-04T18:33:26.625Z,18.22
2022-10-04T18:35:59.448Z,18.15
2022-10-04T18:38:41.044Z,18.15
2022-10-04T18:41:18.991Z,18.10
2022-10-04T18:44:04.838Z,18.07
2022-10-04T18:46:39.797Z,18.06
2022-10-04T18:49:16.888Z,18.01
2022-10-04T18:52:10.703Z,17.93
2022-10-04T18:54:58.904Z,17.91
2022-10-04T18:57:56.435Z,17.88
2022-10-04T19:00:41.656Z,17.81
2022-10-04T19:03:45.004Z,17.75
2022-10-04T19:06:20.923Z,17.78
2022-10-04T19:09:09.044Z,17.82
2022-10-04T19:11:51.800Z,17.69
2022-10-04T19:14:26.024Z,17.66
2022-10-04T19:16:57.007Z,17.64
2022-10-04T19:19:46.938Z,17.62
2022-10-04T19:22:35.037Z,17.64
2022-10-04T19:25:07.645Z,17.59
2022-10-04T19:27:45.157Z,17.56
2022-10-04T19:30:25.216Z,17.51
2022-10-04T19:33:11.648Z,17.46
2022-10-04T19:36:06.037Z,17.35
2022-10-04T19:38:57.373Z,17.27
2022-10-04T19:41:51.232Z,17.23
2022-10-04T19:45:19.369Z,17.21
2022-10-04T19:47:58.600Z,17.18
2022-10-04T19:51:04.425Z,17.17
2022-10-04T19:53:45.173Z,17.15
2022-10-04T19:56:23.741Z,17.13
2022-10-04T19:59:09.154Z,17.00
2022-10-04T20:01:36.486Z,16.93
2022-10-04T20:04:30.278Z,17.02
2022-10-04T20:06:58.672Z,16.97
2022-10-04T20:09:36.964Z,16.91
2022-10-04T20:12:05.958Z,16.86
2022-10-04T20:14:32.365Z,16.82
2022-10-04T20:17:00.690Z,16.84
2022-10-04T20:19:27.047Z,16.92
2022-10-04T20:22:13.862Z,16.94
2022-10-04T20:24:40.259Z,16.95
2022-10-04T20:27:21.927Z,16.93
2022-10-04T20:29:51.714Z,16.96
2022-10-04T20:32:26.910Z,16.97
2022-10-04T20:34:54.986Z,17.00
2022-10-04T20:37:21.728Z,17.02
2022-10-04T20:39:48.058Z,16.98
2022-10-04T20:42:33.541Z,16.79
2022-10-04T20:45:08.993Z,16.61
2022-10-04T20:47:39.313Z,16.50
2022-10-04T20:50:08.020Z,16.34
2022-10-04T20:52:36.841Z,16.27
2022-10-04T20:55:15.480Z,16.32
2022-10-04T20:57:41.920Z,16.37
2022-10-04T21:00:18.357Z,16.42
2022-10-04T21:02:44.839Z,16.40
2022-10-04T21:05:17.392Z,16.45
2022-10-04T21:07:43.812Z,16.42
2022-10-04T21:10:20.218Z,16.43
2022-10-04T21:12:47.182Z,16.42
2022-10-04T21:15:16.637Z,16.43
2022-10-04T21:18:07.164Z,16.38
2022-10-04T21:20:49.434Z,16.43
2022-10-04T21:23:18.568Z,16.42
2022-10-04T21:25:45.066Z,16.37
2022-10-04T21:28:29.990Z,16.30
2022-10-04T21:30:56.608Z,16.16
2022-10-04T21:33:23.011Z,16.08
2022-10-04T21:35:51.486Z,15.99
2022-10-04T21:38:18.668Z,15.97
2022-10-04T21:40:45.194Z,15.96
2022-10-04T21:43:11.686Z,15.93
2022-10-04T21:45:38.132Z,15.98
2022-10-04T21:48:04.553Z,16.05
2022-10-04T21:50:30.972Z,16.15
2022-10-04T21:52:59.617Z,16.20
2022-10-04T21:55:26.031Z,16.12
2022-10-04T21:57:52.423Z,16.00
2022-10-04T22:00:18.949Z,15.96
2022-10-04T22:02:45.441Z,15.98
2022-10-04T22:05:11.922Z,16.02
2022-10-04T22:07:38.383Z,16.02
2022-10-04T22:10:05.300Z,16.00
2022-10-04T22:12:31.723Z,16.00
2022-10-04T22:14:58.133Z,15.94
2022-10-04T22:17:24.619Z,15.91
2022-10-04T22:19:52.895Z,16.01
2022-10-04T22:22:19.352Z,16.08
2022-10-04T22:24:45.749Z,16.05
2022-10-04T22:27:17.366Z,16.06
2022-10-04T22:29:44.796Z,16.08
2022-10-04T22:32:26.049Z,16.01
2022-10-04T22:35:01.325Z,15.96
2022-10-04T22:37:29.701Z,15.91
2022-10-04T22:39:56.141Z,15.84
2022-10-04T22:42:27.640Z,15.89
2022-10-04T22:44:54.095Z,15.95
2022-10-04T22:47:20.532Z,15.93
2022-10-04T22:49:49.885Z,15.95
2022-10-04T22:52:17.992Z,15.93
2022-10-04T22:54:47.000Z,15.91
2022-10-04T22:57:15.509Z,15.97
2022-10-04T22:59:44.979Z,15.97
2022-10-04T23:02:15.761Z,15.93
2022-10-04T23:04:45.782Z,15.96
2022-10-04T23:07:12.227Z,16.02
2022-10-04T23:09:38.642Z,16.03
2022-10-04T23:12:08.596Z,16.00
2022-10-04T23:14:38.951Z,15.99
2022-10-04T23:17:23.478Z,15.93
2022-10-04T23:19:52.833Z,15.87
2022-10-04T23:22:25.557Z,15.87
2022-10-04T23:24:52.296Z,15.84
2022-10-04T23:27:18.768Z,15.86
2022-10-04T23:29:49.479Z,15.88
2022-10-04T23:32:18.587Z,15.94
2022-10-04T23:34:47.959Z,15.96
2022-10-04T23:37:24.093Z,16.04
2022-10-04T23:39:51.109Z,16.11
2022-10-04T23:42:31.874Z,16.13
2022-10-04T23:45:00.014Z,16.05
2022-10-04T23:47:34.914Z,15.99
2022-10-04T23:50:01.973Z,15.98
2022-10-04T23:52:37.125Z,15.99
2022-10-04T23:55:18.485Z,15.94
2022-10-04T23:57:45.058Z,15.89
